Time;durP1;ratioP1;P1;durP2;ratioP2;P2;SDS_P1;SDS_P2;PMS_P1;PMS_P2;Temp;Humidity;BMP_temperature;BMP_pressure;BME280_temperature;BME280_humidity;BME280_pressure;Samples;Min_cycle;Max_cycle;Signal;HPM_P1;HPM_P2
2022/05/20 00:02:14;;;;;;;5.92;1.25;;;;;;;11.64;47.51;100702.01;1695634;85;21401;-56
2022/05/20 00:04:43;;;;;;;2.02;1.32;;;;;;;11.62;47.45;100707.38;1695386;85;21004;-56
2022/05/20 00:07:12;;;;;;;3.12;1.57;;;;;;;11.56;47.47;100707.63;1695537;85;20976;-56
2022/05/20 00:09:41;;;;;;;5.12;1.57;;;;;;;11.54;47.29;100702.87;1695434;85;21422;-56
2022/05/20 00:12:10;;;;;;;3.52;1.57;;;;;;;11.54;47.14;100699.27;1695415;85;21023;-56
2022/05/20 00:14:39;;;;;;;5.50;1.92;;;;;;;11.54;47.08;100685.03;1695350;85;21503;-55
2022/05/20 00:17:08;;;;;;;3.30;1.67;;;;;;;11.54;47.32;100683.66;1695415;85;21015;-59
2022/05/20 00:19:36;;;;;;;4.83;1.80;;;;;;;11.55;47.67;100683.98;1695649;85;21012;-54
2022/05/20 00:22:06;;;;;;;6.00;2.22;;;;;;;11.55;47.44;100686.73;1695380;85;21488;-54
2022/05/20 00:25:45;;;;;;;7.78;2.02;;;;;;;11.56;47.38;100676.59;1695413;85;20991;-55
2022/05/20 00:27:06;;;;;;;6.15;2.00;;;;;;;11.57;47.50;100677.77;1691692;85;21031;-55
2022/05/20 00:29:35;;;;;;;6.25;2.30;;;;;;;11.57;47.67;100679.14;1695396;85;21455;-55
2022/05/20 00:32:05;;;;;;;3.65;2.10;;;;;;;11.58;47.63;100675.88;1695344;85;21028;-57
2022/05/20 00:34:34;;;;;;;5.25;2.60;;;;;;;11.61;47.51;100676.85;1695362;85;21012;-55
2022/05/20 00:37:03;;;;;;;4.58;2.52;;;;;;;11.61;47.46;100673.59;1695458;85;21391;-55
2022/05/20 00:39:31;;;;;;;6.47;2.90;;;;;;;11.61;47.46;100673.59;1695408;85;21052;-56
2022/05/20 00:42:13;;;;;;;6.97;3.15;;;;;;;11.62;47.61;100684.89;1695630;85;21011;-55
2022/05/20 00:44:41;;;;;;;6.65;3.17;;;;;;;11.68;47.48;100685.99;1695399;85;20987;-54
2022/05/20 00:47:12;;;;;;;7.58;3.15;;;;;;;11.71;47.30;100674.66;1695473;85;21012;-55
2022/05/20 00:49:45;;;;;;;7.25;2.70;;;;;;;11.74;47.27;100680.59;1691434;84;21115;-55
2022/05/20 00:52:14;;;;;;;6.80;2.70;;;;;;;11.74;47.23;100679.22;1697929;84;21631;-55
2022/05/20 00:54:46;;;;;;;6.90;2.80;;;;;;;11.74;47.14;100682.48;1697919;84;20992;-57
2022/05/20 00:57:26;;;;;;;5.97;2.70;;;;;;;11.76;47.28;100685.88;1697897;84;21399;-55
2022/05/20 01:00:00;;;;;;;6.17;3.20;;;;;;;11.77;47.47;100680.72;1690430;84;21091;-54
2022/05/20 01:02:28;;;;;;;5.40;2.67;;;;;;;11.78;47.60;100682.45;1697825;84;21416;-54
2022/05/20 01:04:59;;;;;;;6.35;2.80;;;;;;;11.81;47.40;100672.44;1697998;84;20972;-56
2022/05/20 01:07:30;;;;;;;6.53;2.60;;;;;;;11.87;47.38;100659.81;1697905;84;20968;-54
2022/05/20 01:10:01;;;;;;;5.42;2.70;;;;;;;11.93;47.24;100665.88;1635252;87;21007;-55
2022/05/20 01:12:30;;;;;;;6.08;2.70;;;;;;;11.98;47.15;100672.98;1635181;87;21454;-55
2022/05/20 01:15:00;;;;;;;5.47;2.70;;;;;;;11.99;47.28;100672.79;1635167;88;21085;-56
2022/05/20 01:17:28;;;;;;;3.75;2.47;;;;;;;11.98;47.29;100668.88;1635191;88;21035;-56
2022/05/20 01:19:58;;;;;;;4.55;2.40;;;;;;;11.95;47.47;100677.51;1635276;88;21500;-55
2022/05/20 01:22:50;;;;;;;5.75;2.60;;;;;;;11.93;47.55;100665.35;1635139;88;21012;-57
2022/05/20 01:25:18;;;;;;;5.25;2.80;;;;;;;11.95;47.31;100662.41;1635732;88;21055;-55
2022/05/20 01:27:47;;;;;;;6.67;2.80;;;;;;;11.93;47.45;100671.37;1655867;84;20980;-55
2022/05/20 01:30:20;;;;;;;8.20;2.75;;;;;;;11.91;47.80;100674.84;1697861;84;21007;-56
2022/05/20 01:32:49;;;;;;;5.40;2.40;;;;;;;11.88;47.97;100672.48;1697954;84;20980;-56
2022/05/20 01:35:40;;;;;;;5.00;2.30;;;;;;;11.86;48.16;100664.98;1697872;84;20992;-55
2022/05/20 01:38:11;;;;;;;5.47;2.62;;;;;;;11.83;48.65;100655.24;1697832;84;21003;-56
2022/05/20 01:40:47;;;;;;;4.92;2.60;;;;;;;11.80;48.79;100654.80;1697823;84;21060;-55
2022/05/20 01:43:57;;;;;;;5.55;2.45;;;;;;;11.76;48.98;100657.06;1697869;84;20988;-60
2022/05/20 01:46:39;;;;;;;7.15;2.62;;;;;;;11.77;48.94;100662.02;1698074;84;21019;-55
2022/05/20 01:49:39;;;;;;;4.60;2.30;;;;;;;11.81;48.63;100653.75;1697845;84;21044;-55
2022/05/20 01:52:40;;;;;;;5.28;2.37;;;;;;;11.82;48.69;100652.70;1687926;85;21029;-55
2022/05/20 01:55:14;;;;;;;5.37;2.60;;;;;;;11.85;48.53;100659.16;1687939;85;20984;-56
2022/05/20 01:58:00;;;;;;;7.33;2.65;;;;;;;11.88;48.27;100666.48;1687935;85;20985;-55
2022/05/20 02:00:32;;;;;;;6.85;2.80;;;;;;;11.92;48.00;100671.05;1687947;85;21036;-54
2022/05/20 02:03:09;;;;;;;8.45;2.95;;;;;;;11.96;47.67;100673.72;1687833;85;21429;-56
2022/05/20 02:06:01;;;;;;;5.12;2.72;;;;;;;11.98;47.84;100672.47;1688184;85;21027;-54
2022/05/20 02:08:49;;;;;;;5.58;2.75;;;;;;;12.00;47.73;100658.53;1687919;85;21012;-56
2022/05/20 02:11:37;;;;;;;6.45;2.60;;;;;;;12.03;47.72;100655.38;1667818;85;21008;-54
2022/05/20 02:14:20;;;;;;;6.25;2.80;;;;;;;12.03;47.91;100660.87;1687965;85;21016;-56
2022/05/20 02:17:15;;;;;;;5.58;2.50;;;;;;;12.02;48.01;100660.55;1687969;85;21488;-55
2022/05/20 02:20:04;;;;;;;6.15;2.22;;;;;;;12.05;48.54;100666.49;1688020;85;21044;-55
2022/05/20 02:22:38;;;;;;;6.22;2.60;;;;;;;12.05;48.49;100665.13;1688005;85;21451;-55
2022/05/20 02:25:09;;;;;;;7.55;2.70;;;;;;;12.07;48.48;100667.66;1687942;85;20992;-55
2022/05/20 02:27:41;;;;;;;9.58;2.83;;;;;;;12.08;48.45;100661.64;1687941;85;21073;-55
2022/05/20 02:30:14;;;;;;;7.92;2.37;;;;;;;12.07;48.53;100666.30;1687995;85;21000;-56
2022/05/20 02:33:12;;;;;;;11.93;2.80;;;;;;;12.04;48.69;100661.20;1686615;85;21412;-56
2022/05/20 02:35:42;;;;;;;8.23;3.22;;;;;;;12.02;48.78;100660.55;1654598;85;21073;-55
2022/05/20 02:38:16;;;;;;;8.13;3.12;;;;;;;12.00;48.91;100648.92;1687876;85;21511;-54
2022/05/20 02:40:48;;;;;;;10.93;3.20;;;;;;;12.01;49.11;100649.25;1688038;85;21436;-55
2022/05/20 02:43:17;;;;;;;5.78;2.40;;;;;;;12.02;49.02;100646.30;1687990;85;21406;-55
2022/05/20 02:45:46;;;;;;;8.85;2.95;;;;;;;12.04;48.89;100642.83;1659259;85;20996;-55
2022/05/20 02:48:18;;;;;;;5.17;2.20;;;;;;;12.08;48.97;100647.39;1687886;85;20976;-55
2022/05/20 02:50:46;;;;;;;4.03;2.17;;;;;;;12.11;48.36;100651.63;1687880;85;21083;-57
2022/05/20 02:53:15;;;;;;;4.35;2.20;;;;;;;12.15;47.43;100651.03;1688115;85;20972;-55
2022/05/20 02:55:43;;;;;;;6.42;2.33;;;;;;;12.20;46.92;100658.13;1688248;85;21048;-59
2022/05/20 03:04:09;;;;;;;5.95;2.55;;;;;;;12.27;47.00;100667.27;1688340;85;21004;-56
2022/05/20 03:06:15;;;;;;;5.37;2.50;;;;;;;12.40;47.54;100664.30;1688255;85;21467;-57
2022/05/20 03:08:44;;;;;;;7.30;2.52;;;;;;;12.42;48.87;100668.55;1688186;85;20960;-56
2022/05/20 03:11:14;;;;;;;5.22;2.25;;;;;;;12.42;49.46;100669.06;1688129;85;21007;-55
2022/05/20 03:13:43;;;;;;;6.22;2.00;;;;;;;12.43;49.64;100670.77;1688091;85;21024;-56
2022/05/20 03:16:13;;;;;;;13.58;7.87;;;;;;;12.44;49.93;100671.94;1688276;85;21063;-54
2022/05/20 03:18:41;;;;;;;16.55;3.98;;;;;;;12.44;49.85;100681.55;1688408;85;21004;-55
2022/05/20 03:21:10;;;;;;;7.97;3.05;;;;;;;12.46;49.44;100675.33;1688255;85;21063;-55
2022/05/20 03:23:40;;;;;;;5.42;2.80;;;;;;;12.48;49.65;100677.34;1688250;85;21449;-56
2022/05/20 03:26:08;;;;;;;5.25;2.40;;;;;;;12.46;50.06;100668.98;1688136;85;21016;-55
2022/05/20 03:28:37;;;;;;;7.90;2.80;;;;;;;12.46;50.50;100674.48;1688396;85;20992;-55
2022/05/20 03:31:07;;;;;;;6.03;2.47;;;;;;;12.49;50.66;100680.95;1688205;85;20980;-55
2022/05/20 03:33:37;;;;;;;8.05;2.72;;;;;;;12.51;50.66;100676.09;1688279;85;21007;-55
2022/05/20 03:36:06;;;;;;;5.85;3.00;;;;;;;12.54;50.72;100675.16;1688182;85;21468;-55
2022/05/20 03:38:35;;;;;;;4.87;2.75;;;;;;;12.58;50.40;100677.82;1688194;85;21028;-55
2022/05/20 03:41:04;;;;;;;6.08;2.85;;;;;;;12.61;50.50;100675.19;1688165;85;21023;-55
2022/05/20 03:43:33;;;;;;;7.58;3.08;;;;;;;12.62;50.31;100672.77;1688250;85;21453;-56
2022/05/20 03:46:02;;;;;;;4.85;2.65;;;;;;;12.67;49.79;100671.09;1688303;85;21004;-55
2022/05/20 03:48:31;;;;;;;9.80;5.00;;;;;;;12.70;49.20;100672.06;1688291;85;21004;-56
2022/05/20 03:51:13;;;;;;;9.68;3.30;;;;;;;12.76;48.73;100676.42;1688948;83;21475;-58
2022/05/20 03:53:42;;;;;;;6.87;3.35;;;;;;;12.80;48.47;100674.95;1690148;85;21440;-55
2022/05/20 03:56:12;;;;;;;10.80;3.12;;;;;;;12.83;48.12;100683.64;1663554;85;21035;-57
2022/05/20 03:58:40;;;;;;;7.58;2.45;;;;;;;12.87;47.92;100684.92;1690193;85;21443;-56
2022/05/20 04:03:58;;;;;;;6.53;2.72;;;;;;;12.95;47.62;100677.02;1690202;85;21333;-55
2022/05/20 04:06:26;;;;;;;7.28;2.67;;;;;;;12.96;47.49;100685.06;1690280;85;20968;-55
2022/05/20 04:08:56;;;;;;;6.87;2.55;;;;;;;13.02;47.19;100693.05;1630079;88;20984;-55
2022/05/20 04:11:26;;;;;;;5.37;2.60;;;;;;;13.06;47.19;100691.58;1630190;88;21089;-56
2022/05/20 04:13:54;;;;;;;8.25;2.95;;;;;;;13.12;47.22;100699.53;1630207;88;21463;-57
2022/05/20 04:16:23;;;;;;;8.83;2.92;;;;;;;13.21;47.15;100710.70;1630051;88;21242;-55
2022/05/20 04:18:52;;;;;;;6.40;2.50;;;;;;;13.27;47.67;100715.37;1630454;88;21047;-55
2022/05/20 04:21:20;;;;;;;5.83;2.83;;;;;;;13.30;47.95;100715.81;1630140;88;21059;-56
2022/05/20 04:23:49;;;;;;;5.47;2.37;;;;;;;13.36;48.13;100724.28;1630112;88;21040;-55
2022/05/20 04:26:19;;;;;;;7.12;2.58;;;;;;;13.40;48.30;100729.70;1640901;85;21432;-55
2022/05/20 04:28:48;;;;;;;5.28;2.55;;;;;;;13.43;48.50;100727.91;1690111;85;20984;-56
2022/05/20 04:31:16;;;;;;;7.17;2.70;;;;;;;13.46;48.34;100729.71;1690159;85;21028;-55
2022/05/20 04:33:45;;;;;;;9.08;2.90;;;;;;;13.50;47.91;100732.36;1690158;85;21016;-55
2022/05/20 04:36:14;;;;;;;8.60;2.60;;;;;;;13.55;47.28;100735.87;1690155;85;20976;-55
2022/05/20 04:38:42;;;;;;;9.58;3.17;;;;;;;13.59;47.94;100738.52;1690265;85;21770;-55
2022/05/20 04:46:57;;;;;;;7.95;3.00;;;;;;;13.73;47.29;100744.93;1690342;85;20968;-60
2022/05/20 04:49:26;;;;;;;7.97;3.15;;;;;;;;;;1690125;85;21432;-56
2022/05/20 04:51:55;;;;;;;9.08;4.08;;;;;;;13.78;46.63;100735.50;1690144;85;21015;-55
2022/05/20 04:57:33;;;;;;;8.48;3.45;;;;;;;13.85;48.17;100743.25;1690113;85;21008;-55
2022/05/20 05:00:25;;;;;;;6.78;3.08;;;;;;;13.87;48.09;100728.20;1690084;85;21020;-55
2022/05/20 05:02:54;;;;;;;7.92;3.47;;;;;;;13.90;48.38;100720.05;1690372;85;20992;-55
2022/05/20 05:05:26;;;;;;;6.85;3.00;;;;;;;13.92;49.00;100730.32;1690254;85;21388;-56
2022/05/20 05:07:57;;;;;;;7.60;3.17;;;;;;;13.93;49.23;100733.40;1690238;85;21416;-56
2022/05/20 05:10:28;;;;;;;7.62;3.40;;;;;;;13.96;49.86;100741.23;1690158;85;21020;-55
2022/05/20 05:12:58;;;;;;;8.53;3.22;;;;;;;13.99;49.53;100754.59;1690265;85;20972;-56
2022/05/20 05:15:28;;;;;;;16.67;3.75;;;;;;;14.01;48.79;100751.09;1690259;85;20995;-56
2022/05/20 05:18:21;;;;;;;9.48;3.55;;;;;;;14.06;48.30;100749.92;1690129;85;21010;-56
2022/05/20 05:20:51;;;;;;;7.20;3.33;;;;;;;14.08;47.91;100751.09;1689834;85;21052;-56
2022/05/20 05:23:20;;;;;;;7.45;3.52;;;;;;;14.12;47.30;100742.19;1690240;85;21452;-54
2022/05/20 05:25:49;;;;;;;11.12;3.72;;;;;;;14.14;47.19;100738.69;1690163;85;21048;-55
2022/05/20 05:28:20;;;;;;;8.38;3.95;;;;;;;14.15;46.97;100737.63;1690045;85;21083;-57
2022/05/20 05:30:51;;;;;;;11.22;3.98;;;;;;;14.19;47.43;100749.08;1690129;85;21023;-56
2022/05/20 05:33:20;;;;;;;9.45;3.90;;;;;;;14.21;47.39;100754.69;1690101;85;21483;-54
2022/05/20 05:35:49;;;;;;;15.00;4.50;;;;;;;14.25;46.91;100751.83;1690196;85;21384;-57
2022/05/20 05:38:23;;;;;;;11.28;4.15;;;;;;;14.32;46.63;100749.63;1689052;85;21004;-56
2022/05/20 05:44:02;;;;;;;13.88;4.70;;;;;;;14.46;46.10;100755.47;1690136;85;21054;-56
2022/05/20 05:46:30;;;;;;;14.55;4.90;;;;;;;14.53;45.85;100757.69;1690084;85;21415;-56
2022/05/20 05:48:59;;;;;;;14.47;5.62;;;;;;;14.55;45.73;100747.29;1690122;85;21468;-58
2022/05/20 05:51:27;;;;;;;12.63;5.80;;;;;;;14.60;45.79;100737.84;1690100;83;21456;-55
2022/05/20 05:53:56;;;;;;;15.98;5.75;;;;;;;14.68;45.95;100749.17;1690192;85;21373;-57
2022/05/20 05:56:25;;;;;;;15.83;7.53;;;;;;;14.74;45.81;100745.02;1690012;85;21039;-56
2022/05/20 05:58:53;;;;;;;20.32;8.68;;;;;;;14.79;45.69;100738.31;1690168;85;20968;-55
2022/05/20 06:01:22;;;;;;;19.35;8.83;;;;;;;14.84;45.71;100742.64;1690263;85;21012;-57
2022/05/20 06:03:51;;;;;;;21.68;8.58;;;;;;;14.91;45.88;100753.66;1690124;85;20987;-56
2022/05/20 06:06:20;;;;;;;24.92;9.50;;;;;;;14.94;46.21;100733.06;1690131;85;21518;-57
2022/05/20 06:08:48;;;;;;;18.05;8.73;;;;;;;14.97;46.83;100734.03;1690094;85;21521;-55
2022/05/20 06:11:17;;;;;;;24.18;9.98;;;;;;;14.98;47.62;100733.81;1690111;85;20995;-56
2022/05/20 06:13:45;;;;;;;17.62;8.70;;;;;;;14.99;47.73;100734.66;1690068;85;20968;-57
2022/05/20 06:16:21;;;;;;;23.50;9.38;;;;;;;14.99;48.25;100727.23;1690273;85;21040;-56
2022/05/20 06:18:51;;;;;;;18.20;8.33;;;;;;;15.00;48.39;100722.56;1690132;85;20984;-57
2022/05/20 06:21:20;;;;;;;26.55;9.30;;;;;;;15.02;48.56;100729.55;1690059;85;21023;-58
2022/05/20 06:23:49;;;;;;;19.80;8.33;;;;;;;15.04;48.88;100730.18;1690432;85;20992;-56
2022/05/20 06:26:18;;;;;;;19.80;8.43;;;;;;;15.07;49.11;100728.90;1690086;85;21020;-57
2022/05/20 06:28:46;;;;;;;20.97;8.53;;;;;;;15.10;49.28;100729.30;1690116;85;21004;-56
2022/05/20 06:31:15;;;;;;;18.87;8.05;;;;;;;15.13;49.44;100725.26;1690150;85;21000;-56
2022/05/20 06:33:45;;;;;;;20.48;8.23;;;;;;;15.18;49.55;100723.53;1690045;85;21037;-56
2022/05/20 06:41:49;;;;;;;19.07;8.15;;;;;;;15.40;50.80;100725.42;1690231;85;21012;-58
2022/05/20 06:44:19;;;;;;;16.10;7.12;;;;;;;15.50;51.22;100717.50;1689511;85;21031;-56
2022/05/20 06:46:49;;;;;;;22.20;8.03;;;;;;;15.63;51.28;100716.63;1690253;85;20980;-56
2022/05/20 06:49:18;;;;;;;14.33;6.78;;;;;;;15.80;50.66;100723.84;1685769;85;20996;-56
2022/05/20 06:51:50;;;;;;;20.95;7.90;;;;;;;16.00;50.35;100720.92;1689294;83;21463;-56
2022/05/20 06:54:20;;;;;;;17.42;8.10;;;;;;;16.21;49.92;100716.91;1688069;85;21019;-55
2022/05/20 06:56:48;;;;;;;16.97;8.15;;;;;;;16.34;49.49;100707.13;1688093;85;21456;-64
2022/05/20 06:59:17;;;;;;;20.27;8.28;;;;;;;16.42;49.18;100709.06;1688281;85;21041;-57
2022/05/20 07:01:46;;;;;;;18.52;8.15;;;;;;;16.45;48.95;100711.37;1688092;85;21012;-56
2022/05/20 07:04:16;;;;;;;13.95;7.20;;;;;;;16.44;48.69;100713.83;1684138;85;21023;-56
2022/05/20 07:06:46;;;;;;;17.67;7.47;;;;;;;16.43;48.67;100714.05;1688177;85;20999;-55
2022/05/20 07:09:14;;;;;;;18.75;8.08;;;;;;;16.43;48.71;100708.52;1688087;85;21075;-56
2022/05/20 07:11:43;;;;;;;12.33;7.08;;;;;;;16.42;48.90;100716.52;1688204;85;21017;-56
2022/05/20 07:14:13;;;;;;;17.42;7.28;;;;;;;16.40;49.10;100713.12;1688158;85;20992;-59
2022/05/20 07:16:43;;;;;;;20.17;7.90;;;;;;;16.38;50.89;100711.97;1688092;85;21432;-56
2022/05/20 07:19:12;;;;;;;16.15;7.37;;;;;;;16.36;51.65;100712.73;1688060;85;21433;-56
2022/05/20 07:21:41;;;;;;;18.85;7.67;;;;;;;16.33;53.51;100720.64;1688036;85;21043;-54
2022/05/20 07:24:10;;;;;;;18.48;7.17;;;;;;;16.29;54.79;100722.17;1688208;85;21031;-54
2022/05/20 07:26:38;;;;;;;21.02;7.90;;;;;;;16.23;56.63;100720.28;1688105;85;20988;-55
2022/05/20 07:29:06;;;;;;;21.05;8.43;;;;;;;16.11;58.60;100722.95;1688063;85;21012;-56
2022/05/20 07:31:35;;;;;;;18.90;7.58;;;;;;;16.01;60.22;100723.99;1688115;85;20964;-55
2022/05/20 07:34:05;;;;;;;16.27;7.58;;;;;;;15.88;61.38;100715.27;1688055;85;21019;-54
2022/05/20 07:36:35;;;;;;;16.42;7.30;;;;;;;15.80;62.84;100705.88;1688029;85;21000;-56
2022/05/20 07:39:04;;;;;;;20.10;7.87;;;;;;;15.76;64.84;100704.11;1688098;85;21004;-55
2022/05/20 07:41:33;;;;;;;18.55;7.67;;;;;;;15.72;66.20;100708.92;1688090;85;20977;-56
2022/05/20 07:44:03;;;;;;;16.70;8.15;;;;;;;15.66;67.86;100711.20;1688073;85;20986;-57
2022/05/20 07:46:32;;;;;;;33.88;24.70;;;;;;;15.60;69.66;100712.06;1688039;85;21048;-56
2022/05/20 07:49:01;;;;;;;48.65;35.05;;;;;;;15.59;70.67;100716.73;1691701;83;20968;-58
2022/05/20 07:51:30;;;;;;;66.30;48.60;;;;;;;15.66;71.67;100715.34;1689967;83;21142;-56
2022/05/20 07:54:12;;;;;;;41.37;30.15;;;;;;;15.71;71.83;100714.13;1698525;84;21047;-58
2022/05/20 07:56:54;;;;;;;26.55;15.23;;;;;;;15.76;71.94;100717.07;1683335;84;21052;-54
2022/05/20 07:59:32;;;;;;;18.05;8.75;;;;;;;15.83;72.07;100720.62;1685319;85;21527;-57
2022/05/20 08:02:00;;;;;;;19.80;8.43;;;;;;;15.87;71.36;100726.02;1642782;86;21011;-57
2022/05/20 08:07:25;;;;;;;17.73;7.30;;;;;;;15.95;69.95;100720.22;1651689;86;21005;-58
2022/05/20 08:09:54;;;;;;;24.77;10.68;;;;;;;16.00;69.46;100719.00;1649854;87;21414;-57
2022/05/20 08:12:22;;;;;;;18.77;7.60;;;;;;;16.05;69.53;100717.78;1714331;84;21036;-57
2022/05/20 08:14:51;;;;;;;17.27;8.10;;;;;;;16.10;69.56;100715.19;1714168;84;21028;-57
2022/05/20 08:17:21;;;;;;;19.48;8.70;;;;;;;16.18;70.25;100721.81;1714238;84;20982;-57
2022/05/20 08:19:51;;;;;;;13.95;6.87;;;;;;;16.27;70.18;100727.09;1714131;84;20991;-60
2022/05/20 08:22:23;;;;;;;18.73;7.25;;;;;;;16.34;69.55;100720.95;1714249;83;21012;-58
2022/05/20 08:24:53;;;;;;;14.90;7.10;;;;;;;16.39;69.72;100715.59;1674436;84;21029;-59
2022/05/20 08:27:22;;;;;;;20.52;9.95;;;;;;;16.45;68.95;100701.69;1626744;88;21029;-56
2022/05/20 08:29:52;;;;;;;11.88;6.65;;;;;;;16.48;68.44;100688.78;1626871;88;20989;-59
2022/05/20 08:32:20;;;;;;;13.98;7.83;;;;;;;16.50;67.68;100694.09;1626570;88;21005;-56
2022/05/20 08:34:50;;;;;;;15.35;7.33;;;;;;;16.48;68.26;100681.02;1626794;88;21045;-56
2022/05/20 08:37:18;;;;;;;13.90;7.75;;;;;;;16.47;67.54;100679.33;1626859;87;21005;-57
2022/05/20 08:39:48;;;;;;;14.23;7.37;;;;;;;16.43;67.00;100672.03;1626755;88;21783;-56
2022/05/20 08:42:21;;;;;;;15.23;8.03;;;;;;;16.43;67.34;100668.42;1626269;87;21035;-56
2022/05/20 08:44:50;;;;;;;17.52;8.28;;;;;;;16.43;67.89;100668.42;1626662;88;21173;-55
2022/05/20 08:47:28;;;;;;;15.10;7.60;;;;;;;16.44;68.97;100662.66;1626633;87;21016;-55
2022/05/20 08:49:59;;;;;;;18.40;8.20;;;;;;;16.44;69.26;100661.81;1628344;85;21398;-55
2022/05/20 08:52:28;;;;;;;15.13;8.43;;;;;;;16.49;70.03;100658.66;1689244;85;21459;-56
2022/05/20 08:54:56;;;;;;;16.60;8.90;;;;;;;16.58;71.24;100656.44;1688084;85;21008;-56
2022/05/20 08:57:29;;;;;;;15.63;7.92;;;;;;;16.68;71.67;100649.84;1677645;85;21005;-57
2022/05/20 08:59:58;;;;;;;13.75;7.72;;;;;;;16.80;70.12;100643.84;1659220;86;21079;-57
2022/05/20 09:02:27;;;;;;;10.93;6.53;;;;;;;16.91;69.05;100644.16;1658880;86;21016;-56
2022/05/20 09:04:57;;;;;;;12.07;6.75;;;;;;;17.04;68.67;100639.83;1658944;86;21468;-57
2022/05/20 09:07:26;;;;;;;13.15;7.28;;;;;;;17.20;68.50;100639.71;1658969;86;21504;-59
2022/05/20 09:09:57;;;;;;;12.03;6.15;;;;;;;17.38;67.06;100652.95;1658867;86;20996;-57
2022/05/20 09:12:36;;;;;;;10.88;6.85;;;;;;;17.54;65.09;100643.12;1658971;86;21004;-56
2022/05/20 09:18:09;;;;;;;15.48;6.45;;;;;;;17.91;63.84;100645.22;1658960;86;21102;-58
2022/05/20 09:20:47;;;;;;;8.45;5.40;;;;;;;18.18;63.06;100640.03;1658990;86;21040;-53
2022/05/20 09:23:20;;;;;;;11.78;4.97;;;;;;;18.42;61.88;100630.34;1658927;86;21012;-55
2022/05/20 09:26:08;;;;;;;13.70;5.22;;;;;;;18.64;60.24;100635.03;1680948;85;21430;-56
2022/05/20 09:28:45;;;;;;;10.63;4.20;;;;;;;18.86;57.62;100634.39;1656894;86;21028;-57
2022/05/20 09:31:51;;;;;;;10.23;4.53;;;;;;;19.02;54.63;100626.66;1680419;85;20976;-55
2022/05/20 09:34:31;;;;;;;7.08;3.33;;;;;;;19.17;54.25;100621.40;1680865;85;21036;-57
2022/05/20 09:37:16;;;;;;;8.53;3.33;;;;;;;19.32;51.52;100618.06;1656922;85;21438;-57
2022/05/20 09:39:47;;;;;;;5.40;3.22;;;;;;;19.41;50.68;100617.10;1680503;85;21436;-55
2022/05/20 09:42:23;;;;;;;4.35;2.40;;;;;;;19.48;50.46;100611.68;1656967;85;21033;-56
2022/05/20 09:44:55;;;;;;;5.28;2.62;;;;;;;19.58;49.21;100605.52;1680430;85;20985;-57
2022/05/20 09:47:39;;;;;;;5.22;2.58;;;;;;;19.67;48.81;100602.61;1671199;85;21044;-54
2022/05/20 09:50:31;;;;;;;4.95;2.70;;;;;;;19.75;47.92;100598.02;1680299;85;20984;-56
2022/05/20 09:53:04;;;;;;;11.00;4.20;;;;;;;19.83;45.61;100593.42;1638112;86;21044;-56
2022/05/20 09:55:38;;;;;;;5.90;2.77;;;;;;;19.91;45.65;100594.38;1619353;87;21040;-58
2022/05/20 09:58:27;;;;;;;5.53;2.80;;;;;;;19.98;45.73;100590.58;1667467;85;21058;-56
2022/05/20 10:01:01;;;;;;;6.22;2.58;;;;;;;20.00;45.23;100592.01;1687862;85;21403;-56
2022/05/20 10:03:33;;;;;;;5.90;2.42;;;;;;;20.01;45.19;100587.28;1688007;85;20984;-57
2022/05/20 10:06:24;;;;;;;8.63;2.22;;;;;;;20.05;43.80;100578.72;1687386;85;21433;-58
2022/05/20 10:09:21;;;;;;;6.30;2.20;;;;;;;20.08;43.42;100569.87;1602969;88;21464;-56
2022/05/20 10:12:11;;;;;;;5.05;1.82;;;;;;;20.08;41.66;100559.58;1625823;88;21007;-56
2022/05/20 10:15:00;;;;;;;8.20;2.40;;;;;;;20.05;40.93;100549.52;1625824;88;21042;-56
2022/05/20 10:17:37;;;;;;;5.37;2.12;;;;;;;20.04;40.86;100551.45;1625946;88;21487;-55
2022/05/20 10:20:14;;;;;;;5.25;2.25;;;;;;;20.06;40.13;100547.87;1622047;87;21607;-55
2022/05/20 10:23:13;;;;;;;5.15;1.90;;;;;;;20.05;39.95;100544.80;1624473;87;21158;-56
2022/05/20 10:26:06;;;;;;;10.38;2.37;;;;;;;20.12;39.99;100543.22;1639432;87;21036;-55
2022/05/20 10:34:52;;;;;;;3.77;2.17;;;;;;;20.38;39.24;100528.56;1699984;84;20977;-55
2022/05/20 10:38:01;;;;;;;4.97;2.45;;;;;;;20.46;39.08;100518.40;1672918;84;21044;-56
2022/05/20 10:40:50;;;;;;;5.40;2.42;;;;;;;20.51;39.06;100511.50;1700223;84;21013;-57
2022/05/20 10:50:24;;;;;;;6.03;2.60;;;;;;;20.73;38.60;100493.91;1699881;84;20989;-55
2022/05/20 10:53:24;;;;;;;6.78;2.70;;;;;;;20.73;38.58;100480.83;1677739;84;21522;-57
2022/05/20 10:56:14;;;;;;;5.20;2.50;;;;;;;20.69;38.50;100472.72;1688024;85;20987;-57
2022/05/20 10:58:52;;;;;;;6.25;2.52;;;;;;;20.75;38.92;100473.61;1687247;85;21423;-54
2022/05/20 11:01:48;;;;;;;6.72;2.80;;;;;;;20.74;38.42;100460.79;1687173;85;21027;-54
2022/05/20 11:04:31;;;;;;;7.00;2.92;;;;;;;20.73;38.62;100468.30;1687071;85;21000;-55
2022/05/20 11:07:24;;;;;;;7.12;3.30;;;;;;;20.73;38.77;100461.34;1687070;85;21000;-57
2022/05/20 11:10:26;;;;;;;5.55;2.80;;;;;;;20.74;39.08;100448.25;1687139;85;21047;-57
2022/05/20 11:13:25;;;;;;;4.50;2.52;;;;;;;20.78;39.04;100447.47;1687157;84;21068;-58
2022/05/20 11:16:22;;;;;;;5.05;2.42;;;;;;;20.82;38.67;100438.91;1687321;85;21015;-57
2022/05/20 11:19:21;;;;;;;6.37;2.55;;;;;;;20.84;38.63;100428.89;1687053;84;21016;-58
2022/05/20 11:22:21;;;;;;;7.33;2.80;;;;;;;20.83;38.47;100418.85;1694910;83;20988;-58
2022/05/20 11:25:03;;;;;;;8.65;2.85;;;;;;;20.84;38.75;100421.38;1683798;85;21047;-58
2022/05/20 11:27:50;;;;;;;6.00;2.92;;;;;;;20.91;37.51;100411.41;1687944;85;21258;-56
2022/05/20 11:30:34;;;;;;;8.83;2.70;;;;;;;21.04;37.60;100405.38;1722993;82;21019;-57
2022/05/20 11:33:58;;;;;;;8.78;2.85;;;;;;;21.17;37.71;100396.56;1664126;86;21028;-57
2022/05/20 11:36:55;;;;;;;6.42;2.72;;;;;;;21.37;37.70;100394.50;1688774;85;21008;-57
2022/05/20 11:39:43;;;;;;;5.00;2.62;;;;;;;21.54;37.54;100387.38;1612834;88;21141;-57
2022/05/20 11:42:41;;;;;;;6.30;2.58;;;;;;;21.66;36.34;100380.19;1628854;88;21379;-55
2022/05/20 11:45:27;;;;;;;7.78;2.60;;;;;;;21.71;35.25;100372.68;1629042;88;21072;-57
2022/05/20 11:48:30;;;;;;;7.47;2.75;;;;;;;;;;1628877;88;21053;-58
2022/05/20 11:51:26;;;;;;;5.58;2.25;;;;;;;21.83;36.63;100366.31;1658684;85;20978;-58
2022/05/20 11:54:06;;;;;;;4.67;2.60;;;;;;;21.92;36.66;100361.60;1661460;85;21505;-55
2022/05/20 11:56:53;;;;;;;8.05;3.27;;;;;;;22.01;36.46;100352.98;1691738;85;21035;-57
2022/05/20 11:59:39;;;;;;;9.35;2.58;;;;;;;22.02;36.57;100351.31;1630481;88;21033;-57
2022/05/20 12:02:10;;;;;;;15.98;3.70;;;;;;;22.06;36.83;100350.23;1630231;88;21484;-56
2022/05/20 12:04:39;;;;;;;8.98;2.60;;;;;;;22.08;36.45;100348.85;1590368;88;21422;-57
2022/05/20 12:07:12;;;;;;;7.97;2.77;;;;;;;22.09;36.38;100345.50;1630356;88;21055;-57
2022/05/20 12:09:45;;;;;;;6.53;2.42;;;;;;;22.09;36.56;100339.36;1630229;88;21022;-58
2022/05/20 12:12:24;;;;;;;10.25;2.60;;;;;;;22.12;36.31;100330.47;1630478;88;21029;-57
2022/05/20 12:15:15;;;;;;;11.60;3.47;;;;;;;22.14;36.13;100327.41;1580543;91;21050;-58
2022/05/20 12:17:47;;;;;;;9.80;2.70;;;;;;;22.18;35.86;100321.55;1632800;86;21035;-56
2022/05/20 12:26:26;;;;;;;9.25;2.58;;;;;;;22.31;35.84;100315.98;1634960;88;21015;-55
2022/05/20 12:28:55;;;;;;;5.65;2.45;;;;;;;22.34;35.79;100318.22;1631511;88;21009;-56
2022/05/20 12:31:29;;;;;;;6.25;3.05;;;;;;;22.36;35.61;100303.43;1627734;88;20988;-60
2022/05/20 12:34:14;;;;;;;5.85;2.42;;;;;;;22.39;35.60;100296.73;1672466;85;21000;-58
2022/05/20 12:36:43;;;;;;;5.42;2.17;;;;;;;22.41;35.47;100297.29;1659931;85;21036;-57
2022/05/20 12:39:19;;;;;;;4.62;2.52;;;;;;;22.46;35.66;100295.06;1680399;85;21018;-57
2022/05/20 12:41:55;;;;;;;6.75;2.67;;;;;;;22.49;35.75;100290.88;1649657;87;21016;-54
2022/05/20 12:44:31;;;;;;;;;;;;;;;22.50;35.53;100285.00;1652034;87;21019;-56
2022/05/20 12:47:23;;;;;;;5.67;2.40;;;;;;;22.50;35.06;100281.37;1649633;87;20254;-56
2022/05/20 12:50:08;;;;;;;7.00;2.92;;;;;;;22.50;34.90;100279.42;1649632;87;21452;-59
2022/05/20 12:52:52;;;;;;;7.55;2.40;;;;;;;22.52;34.38;100274.39;1646302;87;21449;-51